Aviation Digital Data Service (ADDS)

Output produced by METARs form (2340 UTC 23 May 2022)
found at http://www.aviationweather.gov/metar/data/
 
FTTJ 232200Z 18004KT 8000 NSC 32/17 Q1009 NOSIG
TAF FTTJ 232300Z 2400/2506 VRB05KT 6000 NSC
       
FTTA 232300Z 22008KT CAVOK 25/23 Q1012